Time;durP1;ratioP1;P1;durP2;ratioP2;P2;SDS_P1;SDS_P2;PMS_P1;PMS_P2;Temp;Humidity;BMP_temperature;BMP_pressure;BME280_temperature;BME280_humidity;BME280_pressure;Samples;Min_cycle;Max_cycle;Signal;HPM_P1;HPM_P2
2021/04/16 00:01:12;;;;;;;2.95;2.47;;;;;;;9.83;71.16;98867.77;1788432;79;21131;-43
2021/04/16 00:03:41;;;;;;;3.25;2.50;;;;;;;9.78;71.17;98864.05;1800044;79;21134;-42
2021/04/16 00:06:11;;;;;;;3.65;2.15;;;;;;;9.77;71.25;98865.19;1772283;79;22083;-42
2021/04/16 00:08:39;;;;;;;2.65;2.02;;;;;;;9.81;71.18;98864.09;1775666;79;21187;-42
2021/04/16 00:11:15;;;;;;;3.08;2.20;;;;;;;9.82;71.11;98862.95;1802504;79;21678;-42
2021/04/16 00:13:45;;;;;;;6.28;2.47;;;;;;;9.81;71.14;98865.44;1799745;79;21020;-43
2021/04/16 00:16:17;;;;;;;2.00;1.80;;;;;;;9.78;71.18;98871.56;1797490;78;21174;-42
2021/04/16 00:18:45;;;;;;;3.75;2.00;;;;;;;9.76;71.28;98866.33;1780472;79;21413;-42
2021/04/16 00:21:14;;;;;;;3.40;2.42;;;;;;;9.74;71.41;98864.55;1801735;79;21133;-43
2021/04/16 00:23:42;;;;;;;2.67;2.40;;;;;;;9.77;71.24;98864.62;1793192;78;21158;-43
2021/04/16 00:26:11;;;;;;;2.40;2.12;;;;;;;9.74;71.30;98863.98;1800552;79;21134;-43
2021/04/16 00:28:42;;;;;;;2.70;2.45;;;;;;;9.69;71.51;98864.29;1801661;79;21180;-43
2021/04/16 00:31:22;;;;;;;2.22;1.90;;;;;;;9.63;71.67;98864.42;1799094;79;21778;-42
2021/04/16 00:33:50;;;;;;;3.17;2.45;;;;;;;9.63;71.68;98865.77;1791234;79;21141;-42
2021/04/16 00:36:20;;;;;;;3.02;2.58;;;;;;;9.68;71.78;98870.88;1772328;79;21150;-43
2021/04/16 00:38:49;;;;;;;2.47;2.27;;;;;;;9.70;71.74;98864.50;1775344;79;21166;-42
2021/04/16 00:41:24;;;;;;;3.63;2.40;;;;;;;9.71;71.67;98858.52;1789592;79;21158;-42
2021/04/16 00:43:52;;;;;;;2.90;2.40;;;;;;;9.66;71.58;98858.84;1799210;79;21198;-42
2021/04/16 00:46:39;;;;;;;3.72;2.80;;;;;;;9.59;71.76;98854.09;1785070;79;21130;-42
2021/04/16 00:49:10;;;;;;;3.10;2.30;;;;;;;9.56;71.89;98852.91;1798141;79;21473;-43
2021/04/16 00:51:47;;;;;;;;;;;;;;;9.62;71.92;98853.38;1761006;79;21639;-42
2021/04/16 00:54:21;;;;;;;3.80;3.10;;;;;;;9.62;71.86;98856.09;1799742;79;20569;-42
2021/04/16 00:56:50;;;;;;;5.22;2.92;;;;;;;9.48;72.21;98854.52;1787163;79;21341;-43
2021/04/16 00:59:22;;;;;;;3.37;2.60;;;;;;;9.46;72.36;98855.45;1771529;79;21166;-43
2021/04/16 01:01:51;;;;;;;2.83;2.52;;;;;;;9.49;72.20;98859.55;1773277;79;21150;-42
2021/04/16 01:04:19;;;;;;;4.30;3.00;;;;;;;9.52;72.18;98859.41;1770754;81;21153;-42
2021/04/16 01:06:49;;;;;;;3.47;2.90;;;;;;;9.53;72.24;98855.00;1782635;79;21131;-42
2021/04/16 01:09:17;;;;;;;3.85;3.00;;;;;;;9.52;72.35;98858.06;1798778;79;21147;-42
2021/04/16 01:11:47;;;;;;;6.58;3.00;;;;;;;9.50;72.31;98853.00;1799893;79;21126;-43
2021/04/16 01:14:17;;;;;;;3.98;2.55;;;;;;;9.06;72.33;98799.19;1801564;79;20992;-42
2021/04/16 01:16:45;;;;;;;3.30;2.85;;;;;;;9.43;72.56;98852.13;1794094;79;21652;-43
2021/04/16 01:19:34;;;;;;;5.40;2.90;;;;;;;9.45;72.45;98856.02;1801301;79;21151;-42
2021/04/16 01:22:17;;;;;;;3.62;3.02;;;;;;;9.49;72.41;98857.41;1783449;79;21450;-42
2021/04/16 01:24:45;;;;;;;4.10;3.22;;;;;;;9.47;72.54;98856.45;1766915;80;21123;-43
2021/04/16 01:27:14;;;;;;;3.50;2.77;;;;;;;9.50;72.41;98857.63;1744132;80;21557;-42
2021/04/16 01:29:45;;;;;;;4.50;3.00;;;;;;;9.54;72.32;98853.05;1771256;79;21637;-42
2021/04/16 01:32:29;;;;;;;4.85;3.00;;;;;;;9.60;72.06;98857.80;1757497;81;21197;-43
2021/04/16 01:34:57;;;;;;;3.52;2.80;;;;;;;9.59;71.99;98855.44;1791100;79;21438;-42
2021/04/16 01:37:30;;;;;;;4.42;3.40;;;;;;;9.53;71.99;98850.94;1799200;79;21024;-43
2021/04/16 01:39:57;;;;;;;4.08;3.47;;;;;;;9.51;72.06;98849.16;1801052;79;21118;-43
2021/04/16 01:42:26;;;;;;;3.12;2.77;;;;;;;9.51;72.06;98850.51;1730625;82;21895;-42
2021/04/16 01:44:54;;;;;;;3.42;2.98;;;;;;;9.54;71.95;98851.70;1772299;79;21182;-43
2021/04/16 01:47:22;;;;;;;3.30;2.92;;;;;;;9.54;71.86;98850.34;1777999;79;21363;-43
2021/04/16 01:49:51;;;;;;;5.30;3.35;;;;;;;9.51;71.98;98847.80;1772056;79;21565;-42
2021/04/16 01:52:29;;;;;;;3.42;3.12;;;;;;;9.49;71.97;98846.59;1779116;79;21125;-42
2021/04/16 01:54:58;;;;;;;4.33;2.80;;;;;;;9.48;71.95;98846.41;1785371;79;21606;-42
2021/04/16 01:57:32;;;;;;;3.55;2.80;;;;;;;9.46;71.76;98845.41;1801192;79;21598;-42
2021/04/16 02:00:00;;;;;;;3.12;2.83;;;;;;;9.48;71.79;98842.34;1802399;79;21230;-43
2021/04/16 02:02:32;;;;;;;2.40;2.10;;;;;;;9.46;71.83;98836.51;1788579;79;21194;-42
2021/04/16 02:05:00;;;;;;;3.30;3.00;;;;;;;9.41;71.90;98835.47;1774098;79;21590;-43
2021/04/16 02:09:16;;;;;;;3.92;3.10;;;;;;;9.33;72.12;98834.59;1751127;79;22767;-42
2021/04/16 02:11:44;;;;;;;3.85;3.05;;;;;;;9.27;72.26;98833.90;1718135;82;21056;-42
2021/04/16 02:14:18;;;;;;;4.08;3.08;;;;;;;9.26;72.23;98830.98;1737490;82;21789;-42
2021/04/16 02:16:48;;;;;;;5.08;3.37;;;;;;;9.22;72.44;98832.86;1735037;82;21672;-43
2021/04/16 02:19:16;;;;;;;4.28;3.40;;;;;;;9.18;72.57;98832.81;1703751;82;21004;-43
2021/04/16 02:21:44;;;;;;;3.80;3.15;;;;;;;9.16;72.61;98836.43;1723156;82;21268;-42
2021/04/16 02:24:12;;;;;;;3.50;3.10;;;;;;;9.14;72.72;98834.11;1745603;82;21598;-42
2021/04/16 02:26:40;;;;;;;3.85;3.33;;;;;;;9.21;72.72;98839.40;1719183;82;21259;-42
2021/04/16 02:29:11;;;;;;;4.33;3.87;;;;;;;9.23;72.59;98839.83;1733631;82;21056;-42
2021/04/16 02:31:42;;;;;;;;;;;;;;;9.22;72.64;98840.97;1736309;82;20968;-42
2021/04/16 02:34:21;;;;;;;4.70;3.75;;;;;;;9.23;72.61;98837.13;1738083;82;20266;-42
2021/04/16 02:36:50;;;;;;;3.83;3.37;;;;;;;9.11;72.76;98838.88;1733961;82;21166;-42
2021/04/16 02:39:17;;;;;;;4.37;3.95;;;;;;;8.85;72.69;98792.10;1734673;82;21348;-43
2021/04/16 02:41:45;;;;;;;4.65;4.25;;;;;;;9.17;72.62;98831.23;1718314;82;21052;-42
2021/04/16 02:44:15;;;;;;;6.83;4.60;;;;;;;9.14;72.41;98835.47;1718638;82;21189;-42
2021/04/16 02:46:44;;;;;;;5.22;4.33;;;;;;;9.09;72.36;98831.71;1743644;82;21581;-42
2021/04/16 02:49:12;;;;;;;4.95;4.22;;;;;;;9.02;72.55;98835.64;1739800;82;21180;-42
2021/04/16 02:51:40;;;;;;;5.87;4.40;;;;;;;8.98;72.76;98835.37;1743692;82;21203;-41
2021/04/16 02:54:08;;;;;;;4.47;4.03;;;;;;;9.04;72.75;98842.05;1725243;82;21107;-42
2021/04/16 02:56:36;;;;;;;5.15;4.58;;;;;;;9.05;72.82;98833.55;1734108;82;21409;-42
2021/04/16 02:59:05;;;;;;;5.17;4.60;;;;;;;9.05;72.92;98831.45;1746213;81;21151;-42
2021/04/16 03:01:33;;;;;;;4.50;3.90;;;;;;;9.01;73.01;98834.64;1748138;82;22146;-42
2021/04/16 03:04:01;;;;;;;5.00;3.90;;;;;;;8.98;72.91;98833.45;1745753;80;21432;-42
2021/04/16 03:06:29;;;;;;;5.70;3.85;;;;;;;8.96;72.78;98827.61;1741012;82;21411;-42
2021/04/16 03:08:59;;;;;;;4.97;4.35;;;;;;;8.91;72.86;98830.61;1726711;82;21452;-42
2021/04/16 03:11:28;;;;;;;4.62;4.20;;;;;;;8.84;72.88;98833.22;1748703;82;21147;-42
2021/04/16 03:13:56;;;;;;;5.37;4.08;;;;;;;8.80;73.16;98828.89;1742617;82;21154;-42
2021/04/16 03:16:27;;;;;;;4.67;3.92;;;;;;;8.81;73.12;98833.16;1730762;81;21343;-42
2021/04/16 03:18:59;;;;;;;4.08;3.62;;;;;;;8.85;72.90;98831.30;1744572;82;21024;-42
2021/04/16 03:21:26;;;;;;;4.30;3.90;;;;;;;8.85;72.83;98829.95;1747468;81;21080;-42
2021/04/16 03:23:54;;;;;;;4.62;4.08;;;;;;;8.83;72.70;98829.51;1746244;82;21142;-42
2021/04/16 03:26:23;;;;;;;6.33;3.70;;;;;;;8.79;72.92;98834.86;1746413;81;21146;-42
2021/04/16 03:28:54;;;;;;;4.10;3.42;;;;;;;8.80;72.86;98837.78;1729157;81;21194;-42
2021/04/16 03:31:23;;;;;;;4.47;3.80;;;;;;;8.84;72.78;98839.19;1722855;82;21154;-42
2021/04/16 03:33:52;;;;;;;5.35;4.37;;;;;;;8.84;72.86;98831.08;1718396;83;21170;-42
2021/04/16 03:36:30;;;;;;;6.08;3.90;;;;;;;8.87;72.97;98834.40;1821353;78;22810;-42
2021/04/16 03:38:58;;;;;;;4.53;3.60;;;;;;;8.84;72.77;98842.67;1793333;79;20924;-42
2021/04/16 03:41:26;;;;;;;4.83;3.58;;;;;;;8.87;72.62;98838.45;1806822;79;21348;-42
2021/04/16 03:43:54;;;;;;;4.20;3.80;;;;;;;8.89;72.49;98840.24;1806506;79;21027;-42
2021/04/16 03:46:22;;;;;;;4.47;4.08;;;;;;;8.88;72.52;98834.05;1806802;79;21958;-42
2021/04/16 03:48:50;;;;;;;4.45;3.60;;;;;;;8.83;72.48;98838.97;1792530;79;21171;-42
2021/04/16 03:51:20;;;;;;;5.50;4.15;;;;;;;8.79;72.67;98838.92;1776529;79;20977;-42
2021/04/16 03:53:47;;;;;;;5.08;4.08;;;;;;;8.76;72.88;98839.65;1797885;79;21182;-42
2021/04/16 03:56:17;;;;;;;4.53;3.70;;;;;;;8.81;72.83;98846.08;1787989;79;21067;-42
2021/04/16 03:58:46;;;;;;;4.72;4.22;;;;;;;8.87;72.58;98839.24;1776322;79;20996;-42
2021/04/16 04:01:16;;;;;;;4.40;3.85;;;;;;;8.85;72.52;98838.84;1778197;79;21134;-42
2021/04/16 04:03:44;;;;;;;4.33;3.92;;;;;;;8.86;72.58;98841.73;1777276;79;21573;-42
2021/04/16 04:06:11;;;;;;;4.08;3.67;;;;;;;8.86;72.51;98843.08;1749114;81;21282;-42
2021/04/16 04:08:41;;;;;;;3.72;3.20;;;;;;;8.85;72.44;98842.11;1769134;81;21143;-42
2021/04/16 04:11:10;;;;;;;6.15;4.30;;;;;;;8.93;72.47;98842.43;1752289;81;21215;-42
2021/04/16 04:13:39;;;;;;;4.42;4.03;;;;;;;9.01;72.47;98848.16;1713177;82;21195;-42
2021/04/16 04:16:08;;;;;;;5.53;4.22;;;;;;;9.06;72.39;98852.70;1718918;82;21143;-42
2021/04/16 04:18:36;;;;;;;4.78;4.10;;;;;;;9.11;72.20;98851.61;1723450;82;21639;-42
2021/04/16 04:21:05;;;;;;;4.75;3.87;;;;;;;9.13;71.99;98848.77;1714750;82;21222;-42
2021/04/16 04:23:35;;;;;;;4.33;3.50;;;;;;;9.19;71.83;98849.81;1743805;81;21078;-42
2021/04/16 04:26:04;;;;;;;4.50;4.10;;;;;;;9.23;71.50;98849.30;1726069;82;21242;-42
2021/04/16 04:28:32;;;;;;;4.42;3.80;;;;;;;9.20;71.16;98851.38;1717745;82;21658;-42
2021/04/16 04:31:00;;;;;;;4.80;4.33;;;;;;;9.17;71.54;98848.81;1729075;82;21320;-42
2021/04/16 04:33:30;;;;;;;4.83;4.03;;;;;;;9.14;71.43;98848.98;1769640;80;21162;-39
2021/04/16 04:35:59;;;;;;;5.15;3.95;;;;;;;9.11;71.41;98856.45;1737652;82;21155;-41
2021/04/16 04:38:27;;;;;;;8.33;4.03;;;;;;;9.14;71.56;98850.91;1782733;79;21095;-41
2021/04/16 04:40:54;;;;;;;4.72;3.83;;;;;;;9.20;71.42;98851.38;1748953;81;21637;-41
2021/04/16 04:43:22;;;;;;;5.35;3.70;;;;;;;9.24;71.14;98851.65;1758727;81;21359;-42
2021/04/16 04:45:50;;;;;;;4.17;3.77;;;;;;;9.23;70.93;98847.95;1718826;82;21206;-42
2021/04/16 04:48:18;;;;;;;4.62;3.72;;;;;;;9.21;71.06;98850.22;1770398;79;20972;-42
2021/04/16 04:50:46;;;;;;;4.53;3.65;;;;;;;9.23;71.11;98854.70;1769067;79;21146;-42
2021/04/16 04:53:16;;;;;;;4.60;4.10;;;;;;;9.24;70.78;98852.22;1768530;79;21420;-42
2021/04/16 04:55:45;;;;;;;4.65;3.83;;;;;;;9.29;70.86;98855.40;1764532;81;21137;-42
2021/04/16 04:58:13;;;;;;;7.45;4.17;;;;;;;9.33;70.89;98857.59;1766148;79;21171;-42
2021/04/16 05:00:41;;;;;;;4.67;4.00;;;;;;;9.34;70.51;98852.95;1778318;79;21036;-42
2021/04/16 05:03:09;;;;;;;4.50;4.10;;;;;;;9.34;70.67;98850.25;1764507;80;21159;-42
2021/04/16 05:05:37;;;;;;;5.28;4.22;;;;;;;9.34;70.66;98843.49;1794980;79;21108;-42
2021/04/16 05:08:06;;;;;;;4.35;3.95;;;;;;;9.40;70.58;98853.62;1785477;79;21411;-42
2021/04/16 05:10:34;;;;;;;7.42;4.83;;;;;;;9.43;70.30;98848.07;1766393;79;21186;-42
2021/04/16 05:13:03;;;;;;;3.27;2.98;;;;;;;9.41;70.07;98851.13;1764693;79;21059;-42
2021/04/16 05:15:32;;;;;;;6.05;4.62;;;;;;;9.33;70.31;98849.47;1764583;81;21146;-43
2021/04/16 05:18:00;;;;;;;4.75;4.28;;;;;;;9.26;70.46;98849.91;1774186;79;21162;-41
2021/04/16 05:20:29;;;;;;;6.12;5.12;;;;;;;9.22;70.84;98850.44;1779565;79;21179;-41
2021/04/16 05:22:57;;;;;;;5.15;4.45;;;;;;;9.16;70.86;98845.33;1766553;79;21119;-41
2021/04/16 05:25:25;;;;;;;5.95;4.28;;;;;;;9.21;70.80;98843.45;1769988;79;21017;-41
2021/04/16 05:27:53;;;;;;;6.10;4.83;;;;;;;9.21;70.66;98844.24;1771584;79;21565;-41
2021/04/16 05:30:22;;;;;;;5.03;4.50;;;;;;;9.16;70.81;98839.92;1769067;79;21152;-41
2021/04/16 05:32:50;;;;;;;5.30;4.67;;;;;;;9.09;71.00;98843.88;1764667;81;21373;-41
2021/04/16 05:35:19;;;;;;;5.80;4.47;;;;;;;9.05;70.88;98849.77;1768700;79;21146;-41
2021/04/16 05:37:48;;;;;;;4.60;4.10;;;;;;;9.02;70.93;98847.02;1786067;79;21170;-41
2021/04/16 05:40:17;;;;;;;5.42;4.90;;;;;;;9.02;70.99;98849.16;1777486;79;21585;-41
2021/04/16 05:42:44;;;;;;;6.47;5.42;;;;;;;8.97;71.12;98852.16;1795717;79;22146;-41
2021/04/16 05:45:16;;;;;;;5.35;4.85;;;;;;;8.92;71.41;98849.75;1787868;79;21362;-41
2021/04/16 05:47:44;;;;;;;5.37;4.87;;;;;;;8.92;71.63;98848.97;1801544;79;21541;-41
2021/04/16 05:50:14;;;;;;;5.17;4.65;;;;;;;8.96;71.52;98848.45;1805332;79;21154;-41
2021/04/16 05:52:42;;;;;;;5.17;4.67;;;;;;;9.03;71.62;98849.38;1784985;78;21177;-41
2021/04/16 05:55:11;;;;;;;5.80;5.20;;;;;;;9.10;71.24;98852.77;1782992;79;21102;-40
2021/04/16 05:57:41;;;;;;;6.00;5.33;;;;;;;9.09;71.19;98853.91;1794914;79;21401;-41
2021/04/16 06:00:11;;;;;;;6.22;4.67;;;;;;;8.97;71.19;98832.45;1813555;79;20992;-42
2021/04/16 06:02:41;;;;;;;5.40;4.90;;;;;;;9.04;71.31;98850.94;1811032;77;21158;-42
2021/04/16 06:05:14;;;;;;;4.87;4.33;;;;;;;9.01;71.32;98850.86;1743306;80;21160;-42
2021/04/16 06:07:41;;;;;;;5.92;5.25;;;;;;;9.04;71.24;98853.64;1755537;80;21158;-42
2021/04/16 06:10:12;;;;;;;5.53;4.92;;;;;;;9.02;71.21;98850.51;1746299;82;21369;-42
2021/04/16 06:12:40;;;;;;;6.53;5.13;;;;;;;9.01;71.37;98852.21;1726987;82;21234;-42
2021/04/16 06:15:13;;;;;;;5.92;5.30;;;;;;;8.98;71.27;98851.59;1755656;80;21545;-42
2021/04/16 06:17:41;;;;;;;5.65;5.08;;;;;;;8.97;71.24;98850.81;1734805;82;21176;-42
2021/04/16 06:20:11;;;;;;;5.12;4.33;;;;;;;9.04;71.41;98846.89;1730380;82;21731;-42
2021/04/16 06:22:38;;;;;;;5.83;5.22;;;;;;;9.11;71.15;98853.74;1719890;80;21537;-42
2021/04/16 06:25:08;;;;;;;5.83;5.08;;;;;;;9.09;71.17;98853.91;1781285;80;21174;-42
2021/04/16 06:27:36;;;;;;;5.55;4.92;;;;;;;9.13;71.40;98856.88;1790599;79;21011;-42
2021/04/16 06:30:09;;;;;;;5.78;5.17;;;;;;;9.23;71.04;98857.41;1789731;79;21158;-42
2021/04/16 06:32:38;;;;;;;5.33;4.60;;;;;;;9.25;70.69;98866.71;1811321;79;21043;-42
2021/04/16 06:35:08;;;;;;;5.67;5.08;;;;;;;9.31;70.61;98863.92;1813557;79;21445;-42
2021/04/16 06:37:36;;;;;;;7.67;4.45;;;;;;;9.34;70.50;98869.19;1717930;80;21153;-42
2021/04/16 06:40:06;;;;;;;5.47;4.78;;;;;;;9.37;70.53;98867.09;1739587;82;21173;-42
2021/04/16 06:42:34;;;;;;;;;;;;;;;9.40;70.37;98873.91;1745914;81;21181;-42
2021/04/16 06:45:09;;;;;;;4.90;4.40;;;;;;;9.45;69.73;98875.53;1756458;79;20419;-42
2021/04/16 06:47:57;;;;;;;5.30;4.80;;;;;;;9.40;69.76;98874.48;1765221;81;21222;-42
2021/04/16 06:50:30;;;;;;;5.22;4.60;;;;;;;9.46;69.71;98872.47;1763091;79;21074;-42
2021/04/16 06:53:28;;;;;;;5.78;4.60;;;;;;;9.57;69.21;98872.63;1741836;80;21185;-43
2021/04/16 06:56:02;;;;;;;4.80;4.30;;;;;;;9.66;69.19;98873.16;1756231;81;21152;-43
2021/04/16 06:58:53;;;;;;;4.90;4.40;;;;;;;9.73;68.54;98876.55;1750268;81;21181;-43
2021/04/16 07:01:53;;;;;;;5.70;4.87;;;;;;;9.71;67.87;98874.76;1749535;81;22239;-43
2021/04/16 07:04:45;;;;;;;5.95;5.10;;;;;;;9.66;68.20;98874.50;1759004;81;21592;-43
2021/04/16 07:07:33;;;;;;;4.67;4.08;;;;;;;9.54;68.17;98874.70;1753624;79;21176;-43
2021/04/16 07:10:18;;;;;;;5.87;4.80;;;;;;;9.50;68.29;98871.94;1749422;81;21733;-42
2021/04/16 07:12:47;;;;;;;4.70;4.20;;;;;;;9.50;68.23;98875.22;1742298;81;21165;-43
2021/04/16 07:15:23;;;;;;;5.45;4.95;;;;;;;9.47;68.44;98874.03;1759600;81;21365;-43
2021/04/16 07:17:52;;;;;;;5.37;4.60;;;;;;;9.47;68.20;98875.95;1751187;81;21054;-43
2021/04/16 07:20:23;;;;;;;5.40;4.72;;;;;;;9.43;68.07;98881.89;1778502;79;21604;-43
2021/04/16 07:22:54;;;;;;;5.30;4.80;;;;;;;9.40;68.15;98879.89;1781480;79;21074;-43
2021/04/16 07:25:47;;;;;;;4.75;4.33;;;;;;;9.45;68.47;98879.59;1795924;79;21173;-43
2021/04/16 07:28:49;;;;;;;5.50;4.45;;;;;;;9.48;68.39;98881.02;1774748;79;21600;-42
2021/04/16 07:31:49;;;;;;;6.17;5.20;;;;;;;9.43;68.20;98884.03;1790239;79;21631;-43
2021/04/16 07:34:34;;;;;;;5.10;4.50;;;;;;;9.33;68.20;98890.62;1776444;79;21576;-43
2021/04/16 07:37:12;;;;;;;5.58;4.97;;;;;;;9.31;68.33;98889.62;1797086;79;21172;-43
2021/04/16 07:39:47;;;;;;;5.25;4.60;;;;;;;9.33;68.59;98886.55;1793541;79;21423;-43
2021/04/16 07:42:25;;;;;;;5.25;4.72;;;;;;;9.40;68.57;98889.36;1778061;79;21734;-43
2021/04/16 07:45:06;;;;;;;6.92;5.35;;;;;;;9.49;68.21;98887.18;1749672;81;21169;-43
2021/04/16 07:47:36;;;;;;;6.65;5.95;;;;;;;9.58;68.46;98893.14;1799730;79;21165;-42
2021/04/16 07:50:13;;;;;;;5.85;5.22;;;;;;;9.66;68.14;98893.45;1785098;79;21158;-43
2021/04/16 07:52:46;;;;;;;6.30;5.25;;;;;;;9.70;67.50;98898.34;1774769;79;21094;-42
2021/04/16 07:55:31;;;;;;;6.53;5.45;;;;;;;9.68;67.34;98895.23;1775370;79;21416;-43
2021/04/16 07:58:17;;;;;;;5.55;5.05;;;;;;;9.68;67.51;98897.16;1777141;79;21157;-43
2021/04/16 08:00:47;;;;;;;4.95;4.45;;;;;;;9.74;67.19;98903.23;1782906;79;21023;-43
2021/04/16 08:03:24;;;;;;;5.72;5.20;;;;;;;9.84;67.29;98897.19;1783786;79;21125;-42
2021/04/16 08:05:54;;;;;;;5.37;4.65;;;;;;;9.92;67.15;98898.84;1775604;79;21160;-43
2021/04/16 08:08:30;;;;;;;4.92;4.42;;;;;;;9.61;66.47;98846.40;1779335;79;26789;-43
2021/04/16 08:11:05;;;;;;;5.15;4.45;;;;;;;9.93;66.21;98903.11;1770061;81;21026;-43
2021/04/16 08:13:46;;;;;;;5.25;4.75;;;;;;;9.95;66.33;98900.83;1770120;81;21133;-42
2021/04/16 08:16:26;;;;;;;5.65;5.10;;;;;;;10.00;66.03;98904.58;1795044;79;21109;-43
2021/04/16 08:19:36;;;;;;;5.00;4.50;;;;;;;10.00;65.96;98901.09;1791377;79;21493;-43
2021/04/16 08:22:27;;;;;;;4.80;4.30;;;;;;;10.06;66.06;98898.84;1733261;82;22153;-43
2021/04/16 08:25:08;;;;;;;6.10;4.67;;;;;;;10.15;65.26;98900.70;1744982;81;21082;-42
2021/04/16 08:27:58;;;;;;;5.40;4.90;;;;;;;10.14;65.15;98899.14;1787246;79;21180;-43
2021/04/16 08:30:46;;;;;;;6.30;5.70;;;;;;;10.10;65.24;98900.45;1785595;79;21574;-43
2021/04/16 08:33:46;;;;;;;7.70;6.30;;;;;;;9.97;65.61;98901.23;1780972;79;21165;-43
2021/04/16 08:36:31;;;;;;;6.85;6.12;;;;;;;9.85;65.75;98902.81;1779200;79;21356;-43
2021/04/16 08:39:22;;;;;;;7.75;6.97;;;;;;;9.69;66.85;98903.53;1797505;77;21008;-43
2021/04/16 08:41:58;;;;;;;8.75;7.00;;;;;;;9.57;67.62;98903.75;1802257;79;21111;-43
2021/04/16 08:44:27;;;;;;;8.38;7.42;;;;;;;9.50;68.06;98905.77;1811931;79;21146;-43
2021/04/16 08:46:58;;;;;;;9.25;7.17;;;;;;;9.47;68.09;98913.84;1781348;79;20995;-42
2021/04/16 08:49:30;;;;;;;9.25;7.30;;;;;;;9.43;68.07;98908.94;1804390;79;22282;-43
2021/04/16 08:52:12;;;;;;;8.50;7.60;;;;;;;9.41;68.35;98913.92;1808513;79;21170;-43
2021/04/16 08:54:40;;;;;;;9.00;8.10;;;;;;;9.37;68.30;98916.58;1806499;79;21035;-43
2021/04/16 08:57:23;;;;;;;8.48;7.33;;;;;;;9.33;68.49;98921.16;1752317;80;21618;-43
2021/04/16 09:00:01;;;;;;;7.60;6.58;;;;;;;9.36;68.39;98915.58;1741879;82;21115;-43
2021/04/16 09:02:37;;;;;;;8.03;7.22;;;;;;;9.36;68.68;98916.93;1784667;79;21259;-43
2021/04/16 09:05:17;;;;;;;7.90;6.80;;;;;;;9.32;68.26;98918.23;1802374;77;21620;-43
2021/04/16 09:08:12;;;;;;;8.45;6.92;;;;;;;9.32;68.24;98911.47;1800110;79;21043;-43
2021/04/16 09:10:47;;;;;;;8.40;7.37;;;;;;;9.29;68.32;98916.27;1800193;79;21154;-43
2021/04/16 09:13:42;;;;;;;8.58;7.22;;;;;;;9.27;68.34;98916.40;1794226;79;21151;-43
2021/04/16 09:16:21;;;;;;;7.92;7.12;;;;;;;9.37;68.26;98921.20;1798583;79;21337;-43
2021/04/16 09:18:51;;;;;;;9.28;7.37;;;;;;;9.40;68.31;98922.61;1802398;79;21106;-43
2021/04/16 09:21:25;;;;;;;;;;;;;;;9.44;67.52;98919.98;1797635;79;21107;-43
2021/04/16 09:23:59;;;;;;;8.60;7.53;;;;;;;9.42;67.47;98919.55;1797006;79;20264;-43
2021/04/16 09:26:51;;;;;;;8.68;6.60;;;;;;;9.32;67.71;98917.45;1803222;79;21205;-42
2021/04/16 09:29:37;;;;;;;8.68;6.60;;;;;;;9.42;67.56;98916.84;1783233;77;21317;-42
2021/04/16 09:32:38;;;;;;;6.87;6.22;;;;;;;9.54;67.19;98921.48;1781476;80;21166;-43
2021/04/16 09:35:23;;;;;;;7.62;6.83;;;;;;;9.58;67.57;98912.84;1783739;79;20976;-43
2021/04/16 09:37:55;;;;;;;7.53;6.72;;;;;;;9.58;67.16;98915.55;1798074;79;21140;-43
2021/04/16 09:40:30;;;;;;;7.60;6.80;;;;;;;9.58;67.20;98918.85;1747435;80;21194;-43
2021/04/16 09:43:12;;;;;;;7.42;6.58;;;;;;;9.62;67.19;98917.55;1769325;79;21191;-42
2021/04/16 09:45:44;;;;;;;6.12;5.53;;;;;;;9.75;67.05;98919.69;1769676;79;21017;-43
2021/04/16 09:48:24;;;;;;;7.37;5.58;;;;;;;9.94;66.53;98924.20;1775254;79;21032;-40
2021/04/16 09:51:02;;;;;;;5.78;5.05;;;;;;;10.11;66.29;98916.92;1771776;79;21647;-42
2021/04/16 09:53:34;;;;;;;6.17;5.53;;;;;;;10.24;65.15;98917.48;1771126;78;21621;-41
2021/04/16 09:56:14;;;;;;;;;;;;;;;10.30;65.50;98916.03;1775673;79;21361;-41
2021/04/16 09:58:59;;;;;;;5.83;5.25;;;;;;;10.40;64.83;98917.52;1792360;78;20313;-42
2021/04/16 10:01:27;;;;;;;6.80;5.53;;;;;;;10.40;65.38;98916.16;1784386;79;21154;-43
2021/04/16 10:04:13;;;;;;;5.30;4.80;;;;;;;10.49;64.71;98921.87;1778296;79;21841;-42
2021/04/16 10:06:42;;;;;;;6.17;5.58;;;;;;;10.54;64.21;98916.91;1781127;79;21174;-43
2021/04/16 10:09:23;;;;;;;6.20;5.53;;;;;;;10.58;64.04;98922.36;1769207;79;21365;-43
2021/04/16 10:12:14;;;;;;;8.20;5.67;;;;;;;10.51;64.11;98931.75;1765862;79;21562;-42
2021/04/16 10:14:43;;;;;;;6.80;6.10;;;;;;;10.38;64.56;98924.44;1782446;79;21079;-43
2021/04/16 10:17:24;;;;;;;6.22;5.62;;;;;;;10.30;64.24;98924.94;1784981;79;21040;-43
2021/04/16 10:20:08;;;;;;;7.05;6.35;;;;;;;10.26;64.09;98923.33;1782361;79;21479;-43
2021/04/16 10:22:38;;;;;;;12.53;6.33;;;;;;;10.21;64.28;98929.07;1769974;79;21377;-43
2021/04/16 10:50:26;;;;;;;6.80;6.10;;;;;;;10.30;64.48;98939.05;1776865;79;21151;-43
2021/04/16 12:41:18;;;;;;;6.30;5.70;;;;;;;11.73;61.96;98940.16;1815518;79;21146;-42
2021/04/16 12:43:46;;;;;;;6.87;6.17;;;;;;;11.88;61.51;98941.03;1748150;82;21206;-40
2021/04/16 12:46:17;;;;;;;7.00;6.30;;;;;;;11.95;59.91;98934.30;1794802;79;21162;-40
2021/04/16 12:48:45;;;;;;;11.90;8.78;;;;;;;12.00;60.03;98938.80;1800240;79;22204;-41
2021/04/16 12:51:16;;;;;;;7.47;6.67;;;;;;;12.08;59.93;98932.25;1806019;78;21179;-42
2021/04/16 12:53:44;;;;;;;7.53;6.75;;;;;;;12.10;59.03;98931.88;1798818;78;21012;-43
2021/04/16 12:56:16;;;;;;;6.87;6.25;;;;;;;12.06;59.06;98929.70;1811781;78;21146;-42
2021/04/16 12:58:44;;;;;;;8.00;6.92;;;;;;;11.99;59.27;98931.02;1748092;82;21162;-43
2021/04/16 13:01:26;;;;;;;7.05;6.33;;;;;;;11.93;59.36;98927.09;1814975;79;23508;-43
2021/04/16 13:04:04;;;;;;;7.42;6.72;;;;;;;11.99;59.98;98927.73;1807587;78;22675;-43
2021/04/16 13:06:35;;;;;;;7.25;6.55;;;;;;;12.03;59.66;98932.61;1789493;78;20992;-43
2021/04/16 13:09:04;;;;;;;7.65;6.85;;;;;;;12.08;59.19;98929.53;1786531;79;22344;-43
2021/04/16 13:11:34;;;;;;;7.65;6.85;;;;;;;12.05;59.29;98930.27;1783341;80;21596;-43
2021/04/16 13:14:03;;;;;;;6.95;6.25;;;;;;;12.05;59.30;98934.34;1718715;83;21178;-43
2021/04/16 13:16:31;;;;;;;7.22;6.47;;;;;;;12.09;59.11;98929.73;1748607;82;21285;-43
2021/04/16 13:19:09;;;;;;;9.70;8.68;;;;;;;12.10;59.50;98929.16;1715413;82;21041;-43
2021/04/16 13:21:40;;;;;;;9.05;7.95;;;;;;;12.09;60.24;98931.67;1743448;82;22097;-43
2021/04/16 13:24:09;;;;;;;7.85;7.05;;;;;;;12.08;59.96;98933.61;1739386;81;21176;-43
2021/04/16 13:26:38;;;;;;;7.78;6.95;;;;;;;12.05;59.77;98930.27;1756409;80;21036;-43
2021/04/16 13:29:06;;;;;;;8.38;7.45;;;;;;;12.05;60.13;98930.88;1754827;80;21183;-43
2021/04/16 13:31:36;;;;;;;8.68;7.33;;;;;;;12.04;60.29;98933.39;1748878;82;21182;-43
2021/04/16 13:34:06;;;;;;;8.20;7.40;;;;;;;12.10;60.32;98929.16;1764674;80;21207;-43
2021/04/16 13:36:34;;;;;;;8.53;7.70;;;;;;;12.22;59.77;98928.83;1743652;81;21650;-43
2021/04/16 13:39:04;;;;;;;8.15;7.35;;;;;;;12.30;59.74;98934.48;1730602;80;21638;-43
2021/04/16 13:41:34;;;;;;;7.83;7.03;;;;;;;12.34;59.73;98934.53;1728715;81;22386;-43
2021/04/16 13:44:03;;;;;;;8.45;7.20;;;;;;;12.36;59.00;98928.11;1748639;82;21149;-42
2021/04/16 13:46:33;;;;;;;8.63;7.78;;;;;;;12.35;59.53;98930.05;1748689;82;22142;-42
2021/04/16 13:49:04;;;;;;;8.05;6.80;;;;;;;12.36;59.72;98928.89;1779518;80;21166;-39
2021/04/16 13:51:34;;;;;;;8.30;7.37;;;;;;;12.36;59.32;98928.11;1760468;80;21008;-41
2021/04/16 13:54:06;;;;;;;7.30;6.60;;;;;;;12.34;59.33;98925.02;1764608;80;21170;-42
2021/04/16 13:56:34;;;;;;;7.78;6.53;;;;;;;12.33;59.30;98925.59;1769215;80;21178;-42
2021/04/16 13:59:02;;;;;;;7.17;6.40;;;;;;;12.31;59.11;98923.82;1746139;81;21413;-41
2021/04/16 14:01:30;;;;;;;7.97;6.95;;;;;;;12.23;59.33;98924.95;1744175;82;21166;-42
2021/04/16 14:04:03;;;;;;;7.45;6.75;;;;;;;12.17;59.51;98926.47;1754209;81;22198;-41
2021/04/16 14:06:37;;;;;;;8.03;7.22;;;;;;;11.79;59.57;98876.77;1809514;78;21156;-40
2021/04/16 14:09:15;;;;;;;7.60;6.80;;;;;;;12.02;59.73;98930.26;1804608;78;21147;-41
2021/04/16 14:11:43;;;;;;;8.23;7.37;;;;;;;11.86;59.90;98931.89;1806908;78;21561;-41
2021/04/16 14:14:15;;;;;;;8.98;8.05;;;;;;;11.72;60.47;98932.58;1814605;78;21614;-39
2021/04/16 14:16:43;;;;;;;8.05;7.25;;;;;;;11.61;60.69;98937.14;1823517;78;21134;-41
2021/04/16 14:19:24;;;;;;;8.18;7.37;;;;;;;11.56;61.16;98926.63;1764389;78;21851;-41
2021/04/16 14:21:55;;;;;;;8.53;7.65;;;;;;;11.59;61.40;98931.88;1763803;80;21210;-42
2021/04/16 14:26:34;;;;;;;8.00;7.20;;;;;;;11.62;61.54;98934.61;1807394;78;22658;-41